sensor_id;sensor_type;location;lat;lon;timestamp;pressure;altitude;pressure_sealevel;temperature;humidity
10006;BME280;5042;42.626;23.382;2023-05-12T00:00:51;94627.44;;;9.36;100.00
10006;BME280;5042;42.626;23.382;2023-05-12T00:03:17;94633.03;;;9.32;100.00
10006;BME280;5042;42.626;23.382;2023-05-12T00:05:44;94632.72;;;9.27;100.00
10006;BME280;5042;42.626;23.382;2023-05-12T00:08:11;94633.03;;;9.32;100.00
10006;BME280;5042;42.626;23.382;2023-05-12T00:10:39;94636.63;;;9.31;100.00
10006;BME280;5042;42.626;23.382;2023-05-12T00:13:06;94627.22;;;9.22;100.00
10006;BME280;5042;42.626;23.382;2023-05-12T00:15:33;94630.31;;;9.26;100.00
10006;BME280;5042;42.626;23.382;2023-05-12T00:18:02;94631.47;;;9.23;100.00
10006;BME280;5042;42.626;23.382;2023-05-12T00:20:28;94624.72;;;9.29;100.00
10006;BME280;5042;42.626;23.382;2023-05-12T00:22:55;94628.13;;;9.29;100.00
10006;BME280;5042;42.626;23.382;2023-05-12T00:25:22;94622.97;;;9.21;100.00
10006;BME280;5042;42.626;23.382;2023-05-12T00:27:50;94628.72;;;9.17;100.00
10006;BME280;5042;42.626;23.382;2023-05-12T00:30:17;94631.78;;;9.20;100.00
10006;BME280;5042;42.626;23.382;2023-05-12T00:32:44;94625.63;;;9.13;100.00
10006;BME280;5042;42.626;23.382;2023-05-12T00:35:10;94625.63;;;9.13;100.00
10006;BME280;5042;42.626;23.382;2023-05-12T00:37:37;94628.16;;;9.06;100.00
10006;BME280;5042;42.626;23.382;2023-05-12T00:40:05;94630.00;;;8.98;100.00
10006;BME280;5042;42.626;23.382;2023-05-12T00:42:33;94637.84;;;8.98;100.00
10006;BME280;5042;42.626;23.382;2023-05-12T00:45:01;94637.56;;;8.93;100.00
10006;BME280;5042;42.626;23.382;2023-05-12T00:47:29;94623.28;;;8.72;100.00
10006;BME280;5042;42.626;23.382;2023-05-12T00:49:56;94642.00;;;8.84;100.00
10006;BME280;5042;42.626;23.382;2023-05-12T00:52:23;94643.84;;;8.75;100.00
10006;BME280;5042;42.626;23.382;2023-05-12T00:54:50;94646.97;;;8.70;100.00
10006;BME280;5042;42.626;23.382;2023-05-12T00:57:17;94643.31;;;8.80;100.00
10006;BME280;5042;42.626;23.382;2023-05-12T00:59:44;94643.16;;;8.81;100.00
10006;BME280;5042;42.626;23.382;2023-05-12T01:02:13;94636.19;;;8.74;100.00
10006;BME280;5042;42.626;23.382;2023-05-12T01:04:39;94649.06;;;8.75;100.00
10006;BME280;5042;42.626;23.382;2023-05-12T01:07:11;94618.81;;;8.49;100.00
10006;BME280;5042;42.626;23.382;2023-05-12T01:09:40;94620.94;;;8.46;100.00
10006;BME280;5042;42.626;23.382;2023-05-12T01:12:06;94639.38;;;8.53;100.00
10006;BME280;5042;42.626;23.382;2023-05-12T01:14:34;94645.28;;;8.46;100.00
10006;BME280;5042;42.626;23.382;2023-05-12T01:17:02;94653.63;;;8.34;100.00
10006;BME280;5042;42.626;23.382;2023-05-12T01:19:40;94591.41;;;7.98;100.00
10006;BME280;5042;42.626;23.382;2023-05-12T01:22:10;94602.66;;;7.98;100.00
10006;BME280;5042;42.626;23.382;2023-05-12T01:24:50;94637.19;;;8.17;100.00
10006;BME280;5042;42.626;23.382;2023-05-12T01:27:20;94640.41;;;8.27;100.00
10006;BME280;5042;42.626;23.382;2023-05-12T01:29:50;94644.34;;;8.31;100.00
10006;BME280;5042;42.626;23.382;2023-05-12T01:32:18;94639.00;;;8.16;100.00
10006;BME280;5042;42.626;23.382;2023-05-12T01:34:45;94658.09;;;8.08;100.00
10006;BME280;5042;42.626;23.382;2023-05-12T01:37:12;94658.47;;;7.97;100.00
10006;BME280;5042;42.626;23.382;2023-05-12T01:39:38;94646.25;;;7.81;100.00
10006;BME280;5042;42.626;23.382;2023-05-12T01:42:06;94631.09;;;7.60;100.00
10006;BME280;5042;42.626;23.382;2023-05-12T01:44:34;94636.31;;;7.60;100.00
10006;BME280;5042;42.626;23.382;2023-05-12T01:47:01;94642.34;;;7.61;100.00
10006;BME280;5042;42.626;23.382;2023-05-12T01:49:27;94648.38;;;7.61;100.00
10006;BME280;5042;42.626;23.382;2023-05-12T01:51:54;94648.22;;;7.63;100.00
10006;BME280;5042;42.626;23.382;2023-05-12T01:54:21;94650.00;;;7.54;100.00
10006;BME280;5042;42.626;23.382;2023-05-12T01:56:47;94652.00;;;7.52;100.00
10006;BME280;5042;42.626;23.382;2023-05-12T01:59:14;94646.09;;;7.58;100.00
10006;BME280;5042;42.626;23.382;2023-05-12T02:01:42;94655.72;;;7.50;100.00
10006;BME280;5042;42.626;23.382;2023-05-12T02:04:09;94654.25;;;7.47;100.00
10006;BME280;5042;42.626;23.382;2023-05-12T02:06:36;94634.53;;;7.44;100.00
10006;BME280;5042;42.626;23.382;2023-05-12T02:09:03;94649.38;;;7.60;100.00
10006;BME280;5042;42.626;23.382;2023-05-12T02:11:30;94645.75;;;7.61;100.00
10006;BME280;5042;42.626;23.382;2023-05-12T02:13:57;94652.28;;;7.65;100.00
10006;BME280;5042;42.626;23.382;2023-05-12T02:16:24;94640.72;;;7.52;100.00
10006;BME280;5042;42.626;23.382;2023-05-12T02:18:52;94652.47;;;7.64;100.00
10006;BME280;5042;42.626;23.382;2023-05-12T02:21:18;94648.06;;;7.56;100.00
10006;BME280;5042;42.626;23.382;2023-05-12T02:23:45;94650.19;;;7.53;100.00
10006;BME280;5042;42.626;23.382;2023-05-12T02:26:12;94660.78;;;7.51;100.00
10006;BME280;5042;42.626;23.382;2023-05-12T02:28:39;94649.69;;;7.57;100.00
10006;BME280;5042;42.626;23.382;2023-05-12T02:31:05;94653.59;;;7.61;100.00
10006;BME280;5042;42.626;23.382;2023-05-12T02:33:33;94652.63;;;7.62;100.00
10006;BME280;5042;42.626;23.382;2023-05-12T02:36:01;94626.69;;;7.44;100.00
10006;BME280;5042;42.626;23.382;2023-05-12T02:38:28;94647.06;;;7.65;100.00
10006;BME280;5042;42.626;23.382;2023-05-12T02:40:55;94651.31;;;7.58;100.00
10006;BME280;5042;42.626;23.382;2023-05-12T02:43:21;94652.00;;;7.52;100.00
10006;BME280;5042;42.626;23.382;2023-05-12T02:45:48;94643.81;;;7.31;100.00
10006;BME280;5042;42.626;23.382;2023-05-12T02:48:16;94650.00;;;7.38;100.00
10006;BME280;5042;42.626;23.382;2023-05-12T02:50:43;94642.69;;;7.33;100.00
10006;BME280;5042;42.626;23.382;2023-05-12T02:53:11;94646.59;;;7.29;100.00
10006;BME280;5042;42.626;23.382;2023-05-12T02:55:38;94645.94;;;7.19;100.00
10006;BME280;5042;42.626;23.382;2023-05-12T02:58:05;94640.38;;;7.06;100.00
10006;BME280;5042;42.626;23.382;2023-05-12T03:00:31;94617.38;;;6.85;100.00
10006;BME280;5042;42.626;23.382;2023-05-12T03:02:58;94647.53;;;7.04;100.00
10006;BME280;5042;42.626;23.382;2023-05-12T03:05:25;94645.59;;;7.06;100.00
10006;BME280;5042;42.626;23.382;2023-05-12T03:07:52;94651.97;;;7.19;100.00
10006;BME280;5042;42.626;23.382;2023-05-12T03:10:20;94650.66;;;7.15;100.00
10006;BME280;5042;42.626;23.382;2023-05-12T03:12:46;94653.59;;;7.12;100.00
10006;BME280;5042;42.626;23.382;2023-05-12T03:15:13;94657.81;;;7.13;100.00
10006;BME280;5042;42.626;23.382;2023-05-12T03:17:40;94653.59;;;7.12;100.00
10006;BME280;5042;42.626;23.382;2023-05-12T03:20:07;94655.88;;;7.07;100.00
10006;BME280;5042;42.626;23.382;2023-05-12T03:22:34;94659.09;;;7.01;100.00
10006;BME280;5042;42.626;23.382;2023-05-12T03:25:01;94655.84;;;6.91;100.00
10006;BME280;5042;42.626;23.382;2023-05-12T03:27:31;94642.28;;;6.87;100.00
10006;BME280;5042;42.626;23.382;2023-05-12T03:29:58;94697.53;;;6.99;100.00
10006;BME280;5042;42.626;23.382;2023-05-12T03:32:26;94695.75;;;6.99;100.00
10006;BME280;5042;42.626;23.382;2023-05-12T03:34:52;94710.09;;;7.04;100.00
10006;BME280;5042;42.626;23.382;2023-05-12T03:37:19;94695.25;;;6.96;100.00
10006;BME280;5042;42.626;23.382;2023-05-12T03:39:46;94698.53;;;6.98;100.00
10006;BME280;5042;42.626;23.382;2023-05-12T03:42:13;94672.91;;;6.85;100.00
10006;BME280;5042;42.626;23.382;2023-05-12T03:44:42;94709.63;;;7.00;100.00
10006;BME280;5042;42.626;23.382;2023-05-12T03:47:09;94704.06;;;7.03;100.00
10006;BME280;5042;42.626;23.382;2023-05-12T03:49:35;94705.50;;;6.97;100.00
10006;BME280;5042;42.626;23.382;2023-05-12T03:52:02;94708.13;;;6.97;100.00
10006;BME280;5042;42.626;23.382;2023-05-12T03:54:29;94693.78;;;6.93;100.00
10006;BME280;5042;42.626;23.382;2023-05-12T03:56:56;94713.84;;;7.09;100.00
10006;BME280;5042;42.626;23.382;2023-05-12T03:59:22;94706.69;;;7.11;100.00
10006;BME280;5042;42.626;23.382;2023-05-12T04:01:52;94712.22;;;7.08;100.00
10006;BME280;5042;42.626;23.382;2023-05-12T04:04:19;94708.16;;;7.06;100.00
10006;BME280;5042;42.626;23.382;2023-05-12T04:06:46;94705.03;;;7.02;100.00
10006;BME280;5042;42.626;23.382;2023-05-12T04:09:13;94710.63;;;7.07;100.00
10006;BME280;5042;42.626;23.382;2023-05-12T04:11:40;94715.78;;;6.99;100.00
10006;BME280;5042;42.626;23.382;2023-05-12T04:14:07;94729.50;;;7.09;100.00
10006;BME280;5042;42.626;23.382;2023-05-12T04:16:34;94726.59;;;7.12;100.00
10006;BME280;5042;42.626;23.382;2023-05-12T04:19:02;94721.84;;;7.16;100.00
10006;BME280;5042;42.626;23.382;2023-05-12T04:21:29;94729.06;;;7.22;100.00
10006;BME280;5042;42.626;23.382;2023-05-12T04:23:57;94725.13;;;7.18;100.00
10006;BME280;5042;42.626;23.382;2023-05-12T04:26:24;94723.66;;;7.23;100.00
10006;BME280;5042;42.626;23.382;2023-05-12T04:28:51;94712.91;;;7.18;100.00
10006;BME280;5042;42.626;23.382;2023-05-12T04:31:18;94721.41;;;7.29;100.00
10006;BME280;5042;42.626;23.382;2023-05-12T04:33:44;94725.97;;;7.27;100.00
10006;BME280;5042;42.626;23.382;2023-05-12T04:36:12;94724.50;;;7.32;100.00
10006;BME280;5042;42.626;23.382;2023-05-12T04:38:39;94725.19;;;7.51;100.00
10006;BME280;5042;42.626;23.382;2023-05-12T04:41:06;94691.75;;;7.54;100.00
10006;BME280;5042;42.626;23.382;2023-05-12T04:43:33;94690.94;;;7.54;100.00
10006;BME280;5042;42.626;23.382;2023-05-12T04:46:00;94690.94;;;7.54;100.00
10006;BME280;5042;42.626;23.382;2023-05-12T04:48:27;94681.97;;;7.48;100.00
10006;BME280;5042;42.626;23.382;2023-05-12T04:50:54;94688.19;;;7.55;100.00
10006;BME280;5042;42.626;23.382;2023-05-12T04:53:22;94684.59;;;7.64;100.00
10006;BME280;5042;42.626;23.382;2023-05-12T04:55:49;94685.25;;;7.67;100.00
10006;BME280;5042;42.626;23.382;2023-05-12T04:58:16;94678.72;;;7.62;100.00
10006;BME280;5042;42.626;23.382;2023-05-12T05:00:42;94690.94;;;7.70;100.00
10006;BME280;5042;42.626;23.382;2023-05-12T05:03:09;94696.78;;;7.80;100.00
10006;BME280;5042;42.626;23.382;2023-05-12T05:05:36;94694.34;;;7.95;100.00
10006;BME280;5042;42.626;23.382;2023-05-12T05:08:03;94694.34;;;7.95;100.00
10006;BME280;5042;42.626;23.382;2023-05-12T05:10:31;94689.78;;;7.97;100.00
10006;BME280;5042;42.626;23.382;2023-05-12T05:12:58;94698.28;;;7.91;100.00
10006;BME280;5042;42.626;23.382;2023-05-12T05:15:25;94689.78;;;7.97;100.00
10006;BME280;5042;42.626;23.382;2023-05-12T05:17:52;94701.19;;;8.04;100.00
10006;BME280;5042;42.626;23.382;2023-05-12T05:20:19;94695.47;;;8.09;100.00
10006;BME280;5042;42.626;23.382;2023-05-12T05:22:46;94697.91;;;8.19;100.00
10006;BME280;5042;42.626;23.382;2023-05-12T05:25:13;94692.03;;;8.17;100.00
10006;BME280;5042;42.626;23.382;2023-05-12T05:27:42;94697.56;;;8.14;100.00
10006;BME280;5042;42.626;23.382;2023-05-12T05:30:09;94702.00;;;8.05;100.00
10006;BME280;5042;42.626;23.382;2023-05-12T05:32:36;94703.13;;;8.11;100.00
10006;BME280;5042;42.626;23.382;2023-05-12T05:35:05;94699.22;;;8.15;100.00
10006;BME280;5042;42.626;23.382;2023-05-12T05:37:32;94704.09;;;8.18;100.00
10006;BME280;5042;42.626;23.382;2023-05-12T05:39:59;94703.44;;;8.16;100.00
10006;BME280;5042;42.626;23.382;2023-05-12T05:42:25;94709.63;;;8.23;100.00
10006;BME280;5042;42.626;23.382;2023-05-12T05:44:53;94700.19;;;8.22;100.00
10006;BME280;5042;42.626;23.382;2023-05-12T05:47:20;94693.97;;;8.23;100.00
10006;BME280;5042;42.626;23.382;2023-05-12T05:49:47;94701.16;;;8.29;100.00
10006;BME280;5042;42.626;23.382;2023-05-12T05:52:14;94705.53;;;8.37;100.00
10006;BME280;5042;42.626;23.382;2023-05-12T05:54:43;94702.75;;;8.46;100.00
10006;BME280;5042;42.626;23.382;2023-05-12T05:57:09;94703.75;;;8.45;100.00
10006;BME280;5042;42.626;23.382;2023-05-12T05:59:36;94701.59;;;8.57;100.00
10006;BME280;5042;42.626;23.382;2023-05-12T06:02:05;94706.00;;;8.57;100.00
10006;BME280;5042;42.626;23.382;2023-05-12T06:04:32;94704.97;;;8.66;100.00
10006;BME280;5042;42.626;23.382;2023-05-12T06:06:58;94713.91;;;8.80;100.00
10006;BME280;5042;42.626;23.382;2023-05-12T06:09:25;94694.16;;;8.77;100.00
10006;BME280;5042;42.626;23.382;2023-05-12T06:11:52;94707.19;;;8.85;100.00
10006;BME280;5042;42.626;23.382;2023-05-12T06:14:19;94707.88;;;8.79;100.00
10006;BME280;5042;42.626;23.382;2023-05-12T06:16:45;94705.22;;;8.87;100.00
10006;BME280;5042;42.626;23.382;2023-05-12T06:19:14;94708.59;;;8.96;100.00
10006;BME280;5042;42.626;23.382;2023-05-12T06:21:41;94704.75;;;8.84;100.00
10006;BME280;5042;42.626;23.382;2023-05-12T06:24:08;94713.38;;;8.93;100.00
10006;BME280;5042;42.626;23.382;2023-05-12T06:26:35;94716.00;;;8.84;100.00
10006;BME280;5042;42.626;23.382;2023-05-12T06:29:04;94719.94;;;8.80;100.00
10006;BME280;5042;42.626;23.382;2023-05-12T06:31:32;94721.28;;;8.68;100.00
10006;BME280;5042;42.626;23.382;2023-05-12T06:33:58;94720.97;;;8.71;100.00
10006;BME280;5042;42.626;23.382;2023-05-12T06:36:27;94725.50;;;8.77;100.00
10006;BME280;5042;42.626;23.382;2023-05-12T06:38:54;94729.38;;;8.89;100.00
10006;BME280;5042;42.626;23.382;2023-05-12T06:41:21;94728.28;;;8.84;100.00
10006;BME280;5042;42.626;23.382;2023-05-12T06:43:49;94719.13;;;8.80;100.00
10006;BME280;5042;42.626;23.382;2023-05-12T06:46:16;94737.91;;;8.83;100.00
10006;BME280;5042;42.626;23.382;2023-05-12T06:48:43;94741.66;;;8.89;100.00
10006;BME280;5042;42.626;23.382;2023-05-12T06:51:10;94734.94;;;8.95;100.00
10006;BME280;5042;42.626;23.382;2023-05-12T06:53:41;94733.28;;;9.02;100.00
10006;BME280;5042;42.626;23.382;2023-05-12T06:56:08;94731.28;;;9.04;100.00
10006;BME280;5042;42.626;23.382;2023-05-12T06:58:48;94732.22;;;9.11;100.00
10006;BME280;5042;42.626;23.382;2023-05-12T07:01:16;94739.09;;;9.12;100.00
10006;BME280;5042;42.626;23.382;2023-05-12T07:03:43;94725.25;;;9.03;100.00
10006;BME280;5042;42.626;23.382;2023-05-12T07:06:10;94726.88;;;9.04;100.00
10006;BME280;5042;42.626;23.382;2023-05-12T07:08:36;94725.72;;;9.07;100.00
10006;BME280;5042;42.626;23.382;2023-05-12T07:11:04;94728.38;;;8.99;100.00
10006;BME280;5042;42.626;23.382;2023-05-12T07:13:31;94718.72;;;8.99;100.00
10006;BME280;5042;42.626;23.382;2023-05-12T07:15:58;94725.06;;;9.05;100.00
10006;BME280;5042;42.626;23.382;2023-05-12T07:18:25;94731.91;;;9.14;100.00
10006;BME280;5042;42.626;23.382;2023-05-12T07:20:51;94704.16;;;9.05;100.00
10006;BME280;5042;42.626;23.382;2023-05-12T07:23:18;94716.34;;;9.21;100.00
10006;BME280;5042;42.626;23.382;2023-05-12T07:25:45;94736.03;;;9.31;100.00
10006;BME280;5042;42.626;23.382;2023-05-12T07:28:14;94731.63;;;9.32;100.00
10006;BME280;5042;42.626;23.382;2023-05-12T07:30:40;94737.03;;;9.30;100.00
10006;BME280;5042;42.626;23.382;2023-05-12T07:33:07;94736.03;;;9.31;100.00
10006;BME280;5042;42.626;23.382;2023-05-12T07:35:34;94735.38;;;9.38;100.00
10006;BME280;5042;42.626;23.382;2023-05-12T07:38:00;94731.72;;;9.47;100.00
10006;BME280;5042;42.626;23.382;2023-05-12T07:40:28;94736.25;;;9.53;100.00
10006;BME280;5042;42.626;23.382;2023-05-12T07:42:55;94738.81;;;9.61;100.00
10006;BME280;5042;42.626;23.382;2023-05-12T07:45:23;94737.03;;;9.53;100.00
10006;BME280;5042;42.626;23.382;2023-05-12T07:47:50;94692.31;;;9.17;100.00
10006;BME280;5042;42.626;23.382;2023-05-12T07:50:18;94712.41;;;9.48;100.00
10006;BME280;5042;42.626;23.382;2023-05-12T07:52:46;94741.59;;;9.83;100.00
10006;BME280;5042;42.626;23.382;2023-05-12T07:55:13;94729.00;;;10.01;100.00
10006;BME280;5042;42.626;23.382;2023-05-12T07:57:40;94736.19;;;10.22;100.00
10006;BME280;5042;42.626;23.382;2023-05-12T08:00:08;94730.72;;;10.32;100.00
10006;BME280;5042;42.626;23.382;2023-05-12T08:02:37;94715.19;;;10.45;100.00
10006;BME280;5042;42.626;23.382;2023-05-12T08:05:04;94739.88;;;10.80;100.00
10006;BME280;5042;42.626;23.382;2023-05-12T08:07:31;94733.00;;;10.79;100.00
10006;BME280;5042;42.626;23.382;2023-05-12T08:09:58;94733.81;;;10.95;100.00
10006;BME280;5042;42.626;23.382;2023-05-12T08:12:25;94727.22;;;10.99;100.00
10006;BME280;5042;42.626;23.382;2023-05-12T08:14:52;94731.16;;;11.10;100.00
10006;BME280;5042;42.626;23.382;2023-05-12T08:17:18;94734.88;;;11.15;100.00
10006;BME280;5042;42.626;23.382;2023-05-12T08:19:46;94743.91;;;11.13;100.00
10006;BME280;5042;42.626;23.382;2023-05-12T08:22:13;94724.56;;;11.14;100.00
10006;BME280;5042;42.626;23.382;2023-05-12T08:24:46;94669.00;;;10.74;100.00
10006;BME280;5042;42.626;23.382;2023-05-12T08:27:17;94741.38;;;11.19;100.00
10006;BME280;5042;42.626;23.382;2023-05-12T08:29:44;94736.72;;;10.85;100.00
10006;BME280;5042;42.626;23.382;2023-05-12T08:32:11;94728.03;;;10.70;100.00
10006;BME280;5042;42.626;23.382;2023-05-12T08:34:44;94736.97;;;10.90;100.00
10006;BME280;5042;42.626;23.382;2023-05-12T08:37:12;94741.84;;;11.08;100.00
10006;BME280;5042;42.626;23.382;2023-05-12T08:39:39;94739.19;;;11.23;100.00
10006;BME280;5042;42.626;23.382;2023-05-12T08:42:23;94736.53;;;11.38;100.00
10006;BME280;5042;42.626;23.382;2023-05-12T08:44:53;94735.94;;;11.21;100.00
10006;BME280;5042;42.626;23.382;2023-05-12T08:47:21;94739.03;;;11.10;100.00
10006;BME280;5042;42.626;23.382;2023-05-12T08:49:58;94740.22;;;11.07;100.00
10006;BME280;5042;42.626;23.382;2023-05-12T08:52:28;94709.75;;;10.91;100.00
10006;BME280;5042;42.626;23.382;2023-05-12T08:54:57;94731.41;;;11.15;100.00
10006;BME280;5042;42.626;23.382;2023-05-12T08:57:24;94726.16;;;11.15;100.00
10006;BME280;5042;42.626;23.382;2023-05-12T08:59:53;94731.47;;;11.36;100.00
10006;BME280;5042;42.626;23.382;2023-05-12T09:02:21;94709.78;;;11.28;100.00
10006;BME280;5042;42.626;23.382;2023-05-12T09:04:48;94736.72;;;11.36;100.00
10006;BME280;5042;42.626;23.382;2023-05-12T09:07:15;94733.91;;;11.38;100.00
10006;BME280;5042;42.626;23.382;2023-05-12T09:09:46;94723.72;;;11.28;100.00
10006;BME280;5042;42.626;23.382;2023-05-12T09:12:15;94697.16;;;11.01;100.00
10006;BME280;5042;42.626;23.382;2023-05-12T09:14:44;94717.16;;;11.39;100.00
10006;BME280;5042;42.626;23.382;2023-05-12T09:17:11;94725.22;;;11.37;100.00
10006;BME280;5042;42.626;23.382;2023-05-12T09:19:38;94723.97;;;11.33;100.00
10006;BME280;5042;42.626;23.382;2023-05-12T09:22:05;94715.09;;;11.34;100.00
10006;BME280;5042;42.626;23.382;2023-05-12T09:24:34;94716.34;;;11.38;100.00
10006;BME280;5042;42.626;23.382;2023-05-12T09:27:03;94703.13;;;11.46;100.00
10006;BME280;5042;42.626;23.382;2023-05-12T09:29:30;94720.88;;;11.66;100.00
10006;BME280;5042;42.626;23.382;2023-05-12T09:31:58;94721.75;;;11.52;100.00
10006;BME280;5042;42.626;23.382;2023-05-12T09:34:27;94712.69;;;11.54;100.00
10006;BME280;5042;42.626;23.382;2023-05-12T09:36:55;94668.34;;;11.44;100.00
10006;BME280;5042;42.626;23.382;2023-05-12T09:39:22;94714.84;;;11.87;100.00
10006;BME280;5042;42.626;23.382;2023-05-12T09:41:49;94673.44;;;11.67;100.00
10006;BME280;5042;42.626;23.382;2023-05-12T09:44:18;94709.63;;;11.72;100.00
10006;BME280;5042;42.626;23.382;2023-05-12T09:46:45;94714.00;;;11.86;100.00
10006;BME280;5042;42.626;23.382;2023-05-12T09:49:12;94721.44;;;12.04;100.00
10006;BME280;5042;42.626;23.382;2023-05-12T09:51:39;94719.97;;;12.23;100.00
10006;BME280;5042;42.626;23.382;2023-05-12T09:54:06;94717.22;;;12.32;100.00
10006;BME280;5042;42.626;23.382;2023-05-12T09:56:36;94724.31;;;12.09;100.00
10006;BME280;5042;42.626;23.382;2023-05-12T09:59:04;94705.06;;;12.02;100.00
10006;BME280;5042;42.626;23.382;2023-05-12T10:01:32;94713.97;;;12.29;100.00
10006;BME280;5042;42.626;23.382;2023-05-12T10:04:00;94714.22;;;12.35;100.00
10006;BME280;5042;42.626;23.382;2023-05-12T10:06:31;94680.31;;;12.18;100.00
10006;BME280;5042;42.626;23.382;2023-05-12T10:09:04;94708.09;;;12.27;100.00
10006;BME280;5042;42.626;23.382;2023-05-12T10:11:34;94693.34;;;12.61;100.00
10006;BME280;5042;42.626;23.382;2023-05-12T10:14:01;94706.31;;;13.11;100.00
10006;BME280;5042;42.626;23.382;2023-05-12T10:16:28;94704.53;;;12.70;100.00
10006;BME280;5042;42.626;23.382;2023-05-12T10:18:57;94689.69;;;13.04;100.00
10006;BME280;5042;42.626;23.382;2023-05-12T10:21:24;94705.53;;;13.24;100.00
10006;BME280;5042;42.626;23.382;2023-05-12T10:23:51;94697.94;;;13.42;100.00
10006;BME280;5042;42.626;23.382;2023-05-12T10:26:20;94671.44;;;13.57;100.00
10006;BME280;5042;42.626;23.382;2023-05-12T10:28:47;94693.16;;;13.79;100.00
10006;BME280;5042;42.626;23.382;2023-05-12T10:31:15;94699.63;;;13.63;100.00
10006;BME280;5042;42.626;23.382;2023-05-12T10:33:42;94700.44;;;13.77;100.00
10006;BME280;5042;42.626;23.382;2023-05-12T10:36:17;94692.56;;;14.17;100.00
10006;BME280;5042;42.626;23.382;2023-05-12T10:38:46;94683.81;;;14.36;100.00
10006;BME280;5042;42.626;23.382;2023-05-12T10:41:14;94677.94;;;14.48;100.00
10006;BME280;5042;42.626;23.382;2023-05-12T10:43:42;94683.41;;;14.59;100.00
10006;BME280;5042;42.626;23.382;2023-05-12T10:46:20;94663.84;;;14.80;100.00
10006;BME280;5042;42.626;23.382;2023-05-12T10:48:51;94695.13;;;14.90;99.69
10006;BME280;5042;42.626;23.382;2023-05-12T10:51:20;94688.00;;;14.91;100.00
10006;BME280;5042;42.626;23.382;2023-05-12T10:53:57;94691.59;;;15.03;99.30
10006;BME280;5042;42.626;23.382;2023-05-12T10:56:27;94698.31;;;14.99;100.00
10006;BME280;5042;42.626;23.382;2023-05-12T10:59:21;94699.34;;;15.04;96.05
10006;BME280;5042;42.626;23.382;2023-05-12T11:02:01;94683.25;;;15.06;96.15
10006;BME280;5042;42.626;23.382;2023-05-12T11:04:39;94700.28;;;15.17;98.65
10006;BME280;5042;42.626;23.382;2023-05-12T11:07:08;94700.50;;;15.09;96.67
10006;BME280;5042;42.626;23.382;2023-05-12T11:09:36;94704.81;;;14.96;100.00
10006;BME280;5042;42.626;23.382;2023-05-12T11:12:05;94708.28;;;14.97;96.14
10006;BME280;5042;42.626;23.382;2023-05-12T11:14:32;94684.50;;;14.97;99.93
10006;BME280;5042;42.626;23.382;2023-05-12T11:16:59;94695.28;;;15.02;96.39
10006;BME280;5042;42.626;23.382;2023-05-12T11:19:26;94695.97;;;14.71;94.38
10006;BME280;5042;42.626;23.382;2023-05-12T11:21:53;94702.25;;;14.83;94.31
10006;BME280;5042;42.626;23.382;2023-05-12T11:24:22;94704.09;;;14.49;97.26
10006;BME280;5042;42.626;23.382;2023-05-12T11:26:49;94701.06;;;14.46;100.00
10006;BME280;5042;42.626;23.382;2023-05-12T11:29:17;94700.66;;;14.62;98.18
10006;BME280;5042;42.626;23.382;2023-05-12T11:31:48;94705.09;;;14.68;96.30
10006;BME280;5042;42.626;23.382;2023-05-12T11:34:19;94713.41;;;14.78;90.74
10006;BME280;5042;42.626;23.382;2023-05-12T11:36:46;94705.47;;;14.85;90.55
10006;BME280;5042;42.626;23.382;2023-05-12T11:39:15;94707.28;;;14.84;92.69
10006;BME280;5042;42.626;23.382;2023-05-12T11:41:43;94703.28;;;14.49;87.37
10006;BME280;5042;42.626;23.382;2023-05-12T11:44:18;94710.78;;;14.65;94.82
10006;BME280;5042;42.626;23.382;2023-05-12T11:46:56;94698.84;;;14.56;91.23
10006;BME280;5042;42.626;23.382;2023-05-12T11:49:23;94698.41;;;14.59;94.84
10006;BME280;5042;42.626;23.382;2023-05-12T11:51:51;94714.06;;;14.54;92.26
10006;BME280;5042;42.626;23.382;2023-05-12T11:54:18;94704.13;;;14.36;95.83
10006;BME280;5042;42.626;23.382;2023-05-12T11:56:51;94704.50;;;14.46;100.00
10006;BME280;5042;42.626;23.382;2023-05-12T11:59:28;94695.97;;;14.37;99.09
10006;BME280;5042;42.626;23.382;2023-05-12T12:01:55;94705.75;;;14.57;100.00
10006;BME280;5042;42.626;23.382;2023-05-12T12:04:35;94695.19;;;14.37;93.14
10006;BME280;5042;42.626;23.382;2023-05-12T12:07:02;94717.91;;;14.31;91.96
10006;BME280;5042;42.626;23.382;2023-05-12T12:09:30;94717.09;;;14.37;93.65
10006;BME280;5042;42.626;23.382;2023-05-12T12:11:59;94710.59;;;14.40;94.36
10006;BME280;5042;42.626;23.382;2023-05-12T12:14:26;94709.59;;;14.34;95.83
10006;BME280;5042;42.626;23.382;2023-05-12T12:16:53;94678.97;;;14.07;93.21
10006;BME280;5042;42.626;23.382;2023-05-12T12:19:19;94727.03;;;14.15;91.62
10006;BME280;5042;42.626;23.382;2023-05-12T12:21:46;94699.25;;;13.93;96.58
10006;BME280;5042;42.626;23.382;2023-05-12T12:24:13;94707.34;;;14.05;97.76
10006;BME280;5042;42.626;23.382;2023-05-12T12:26:40;94718.72;;;14.12;97.32
10006;BME280;5042;42.626;23.382;2023-05-12T12:29:08;94681.41;;;13.82;91.46
10006;BME280;5042;42.626;23.382;2023-05-12T12:31:35;94704.53;;;13.86;94.70
10006;BME280;5042;42.626;23.382;2023-05-12T12:34:02;94667.59;;;13.60;97.64
10006;BME280;5042;42.626;23.382;2023-05-12T12:36:29;94709.19;;;13.91;97.67
10006;BME280;5042;42.626;23.382;2023-05-12T12:38:56;94713.44;;;13.92;94.55
10006;BME280;5042;42.626;23.382;2023-05-12T12:41:23;94715.03;;;13.73;92.25
10006;BME280;5042;42.626;23.382;2023-05-12T12:43:50;94708.47;;;13.42;90.47
10006;BME280;5042;42.626;23.382;2023-05-12T12:46:18;94704.41;;;13.40;92.62
10006;BME280;5042;42.626;23.382;2023-05-12T12:48:45;94707.25;;;13.45;98.28
10006;BME280;5042;42.626;23.382;2023-05-12T12:51:12;94710.09;;;13.50;96.08
10006;BME280;5042;42.626;23.382;2023-05-12T12:53:39;94710.53;;;13.53;96.18
10006;BME280;5042;42.626;23.382;2023-05-12T12:56:07;94705.09;;;13.68;95.66
10006;BME280;5042;42.626;23.382;2023-05-12T12:58:34;94700.63;;;13.62;98.55
10006;BME280;5042;42.626;23.382;2023-05-12T13:01:01;94705.09;;;13.75;96.02